Time;durP1;ratioP1;P1;durP2;ratioP2;P2;SDS_P1;SDS_P2;PMS_P1;PMS_P2;Temp;Humidity;BMP_temperature;BMP_pressure;BME280_temperature;BME280_humidity;BME280_pressure;Samples;Min_cycle;Max_cycle;Signal;HPM_P1;HPM_P2
2023/05/26 00:02:08;;;;;;;27.98;5.70;;;14.30;68.20;;;13.65;53.38;101744.69;5009998;28;20073;-81
2023/05/26 00:04:35;;;;;;;28.45;6.18;;;14.30;68.30;;;13.65;53.26;101749.22;5011016;28;20053;-81
2023/05/26 00:07:03;;;;;;;23.13;5.97;;;14.30;68.30;;;13.66;53.22;101756.22;5009897;28;20128;-82
2023/05/26 00:09:31;;;;;;;31.13;6.40;;;14.30;68.30;;;13.61;53.28;101742.59;5010967;28;20069;-83
2023/05/26 00:11:58;;;;;;;26.55;6.35;;;14.20;68.10;;;13.62;53.33;101744.28;5005449;28;20144;-83
2023/05/26 00:14:26;;;;;;;26.63;6.35;;;14.20;68.10;;;13.57;53.22;101752.09;5004146;28;20458;-82
2023/05/26 00:16:53;;;;;;;33.40;5.88;;;14.20;68.20;;;13.55;53.27;101743.41;4995348;28;20129;-83
2023/05/26 00:19:21;;;;;;;30.92;6.43;;;14.20;68.20;;;13.53;53.48;101751.66;4993071;28;20755;-83
2023/05/26 00:21:48;;;;;;;32.08;5.38;;;14.20;68.40;;;13.53;53.37;101756.19;5004137;28;20060;-82
2023/05/26 00:24:15;;;;;;;32.70;6.03;;;14.20;68.30;;;13.49;53.35;101757.59;4999097;28;20422;-81
2023/05/26 00:26:44;;;;;;;28.88;5.65;;;14.10;68.30;;;13.46;53.68;101752.63;5007257;28;20073;-83
2023/05/26 00:29:11;;;;;;;26.33;5.43;;;14.10;68.60;;;13.46;53.57;101763.34;4997919;28;20528;-82
2023/05/26 00:31:38;;;;;;;36.47;5.88;;;14.10;68.60;;;13.39;53.63;101756.09;4991127;28;20050;-83
2023/05/26 00:34:05;;;;;;;37.97;6.25;;;14.00;68.60;;;13.37;53.73;101751.97;4991983;28;20042;-82
2023/05/26 00:36:33;;;;;;;26.10;5.22;;;14.00;69.00;;;13.35;53.92;101762.88;5008523;28;20105;-83
2023/05/26 00:39:00;;;;;;;24.67;4.82;;;13.90;69.00;;;13.34;53.80;101757.72;5006025;28;20045;-84
2023/05/26 00:41:27;;;;;;;30.80;6.30;;;13.90;69.10;;;13.31;53.84;101758.94;5004378;28;20125;-82
2023/05/26 00:43:56;;;;;;;27.90;6.07;;;14.00;69.00;;;13.30;54.09;101762.66;5007628;28;20414;-83
2023/05/26 00:46:23;;;;;;;25.38;5.60;;;13.90;69.10;;;13.30;54.09;101762.66;4988621;28;20050;-82
2023/05/26 00:48:51;;;;;;;30.48;5.88;;;13.90;69.30;;;13.26;54.04;101755.19;4992457;28;20471;-83
2023/05/26 00:51:18;;;;;;;29.50;5.65;;;13.90;69.30;;;13.20;54.05;101762.16;5009389;28;20053;-82
2023/05/26 00:53:46;;;;;;;24.55;5.63;;;13.80;69.20;;;13.16;53.94;101763.56;4989340;28;20038;-82
2023/05/26 00:56:16;;;;;;;25.25;5.60;;;13.80;69.30;;;13.14;54.45;101763.75;5009968;28;20073;-84
2023/05/26 00:58:44;;;;;;;26.73;5.57;;;13.70;69.70;;;13.13;54.36;101763.97;5008007;28;20840;-82
2023/05/26 01:01:13;;;;;;;24.13;5.68;;;13.70;69.50;;;13.11;54.20;101761.47;5008478;28;20061;-83
2023/05/26 01:03:40;;;;;;;27.77;6.25;;;13.70;69.70;;;13.09;54.58;101765.38;4989597;28;20137;-84
2023/05/26 01:06:08;;;;;;;26.73;5.68;;;13.70;69.60;;;13.08;54.35;101766.41;4989709;28;20108;-82
2023/05/26 01:08:35;;;;;;;31.33;6.93;;;13.70;69.70;;;13.05;54.41;101772.97;4995973;28;20129;-82
2023/05/26 01:11:13;;;;;;;24.85;5.00;;;13.70;69.70;;;13.04;54.43;101765.97;5006698;28;20048;-82
2023/05/26 01:13:52;;;;;;;30.15;6.05;;;13.60;69.70;;;13.02;54.37;101772.53;4999690;28;20050;-82
2023/05/26 01:16:27;;;;;;;25.83;5.28;;;13.70;69.90;;;13.00;54.65;101771.91;5008141;28;20085;-82
2023/05/26 01:19:02;;;;;;;30.27;5.90;;;13.60;69.90;;;12.93;54.57;101777.19;4986175;28;20046;-83
2023/05/26 01:21:35;;;;;;;26.20;5.57;;;13.60;69.80;;;12.89;54.74;101781.31;5007434;28;20061;-85
2023/05/26 01:24:21;;;;;;;29.70;6.75;;;13.50;69.90;;;12.85;54.81;101777.34;4987190;28;20140;-83
2023/05/26 01:27:12;;;;;;;24.05;5.57;;;13.50;70.20;;;12.84;54.97;101784.56;5005418;28;20099;-82
2023/05/26 01:29:41;;;;;;;29.55;5.80;;;13.40;70.30;;;12.80;54.91;101782.47;5003816;28;20041;-82
2023/05/26 01:32:15;;;;;;;23.75;5.47;;;13.40;70.30;;;12.78;54.93;101777.28;4990486;28;20458;-82
2023/05/26 01:34:42;;;;;;;23.95;5.15;;;13.40;70.50;;;12.76;55.05;101776.66;4991223;28;20053;-82
2023/05/26 01:37:10;;;;;;;25.50;5.72;;;13.30;70.60;;;12.74;55.27;101777.88;5006681;28;20064;-83
2023/05/26 01:39:38;;;;;;;22.48;5.10;;;13.30;70.70;;;12.71;55.19;101770.22;4989643;28;20053;-82
2023/05/26 01:42:11;;;;;;;25.10;5.53;;;13.30;70.70;;;12.71;55.28;101767.56;4989463;28;20056;-83
2023/05/26 01:44:48;;;;;;;22.50;5.78;;;13.30;70.70;;;12.71;55.47;101770.22;4987689;28;20052;-83
2023/05/26 01:47:16;;;;;;;27.58;5.68;;;13.30;70.80;;;12.71;55.30;101773.75;5006738;28;20557;-83
2023/05/26 01:49:46;;;;;;;29.42;5.90;;;13.30;70.80;;;12.70;55.21;101771.25;4990367;28;20689;-83
2023/05/26 01:52:18;;;;;;;30.10;5.95;;;13.30;70.80;;;12.69;55.58;101775.78;4999592;28;20069;-82
2023/05/26 01:54:51;;;;;;;30.80;6.57;;;13.30;70.90;;;12.66;55.43;101784.19;4991313;28;20426;-81
2023/05/26 01:57:19;;;;;;;27.92;5.45;;;13.20;70.90;;;12.66;55.47;101783.38;4986792;28;20046;-81
2023/05/26 01:59:48;;;;;;;25.92;5.78;;;13.30;71.10;;;12.63;55.57;101781.91;4990832;28;20560;-83
2023/05/26 02:02:15;;;;;;;32.70;6.57;;;13.20;70.90;;;12.62;55.64;101772.22;4989589;28;20529;-84
2023/05/26 02:04:42;;;;;;;26.33;4.97;;;13.30;71.20;;;12.60;55.63;101772.41;4990308;28;20048;-83
2023/05/26 02:07:09;;;;;;;30.75;5.80;;;13.20;71.10;;;12.59;55.74;101780.63;5007446;28;20049;-82
2023/05/26 02:09:37;;;;;;;33.97;5.93;;;13.20;71.10;;;12.58;55.74;101770.94;4990995;28;20046;-83
2023/05/26 02:12:06;;;;;;;30.95;6.47;;;13.20;71.30;;;12.56;55.87;101778.34;5007533;28;20042;-83
2023/05/26 02:14:33;;;;;;;27.60;6.35;;;13.10;71.30;;;12.53;55.77;101776.03;5006409;28;20050;-82
2023/05/26 02:17:03;;;;;;;33.15;5.90;;;13.10;71.50;;;12.51;56.02;101778.91;5001673;28;20076;-84
2023/05/26 02:19:30;;;;;;;36.15;6.68;;;13.10;71.70;;;12.48;55.97;101771.25;4990978;28;20049;-82
2023/05/26 02:21:57;;;;;;;31.35;7.07;;;13.10;71.80;;;12.42;56.34;101771.22;4990391;28;20050;-83
2023/05/26 02:24:25;;;;;;;28.98;6.18;;;13.00;71.90;;;12.40;56.33;101774.09;4989929;28;20040;-83
2023/05/26 02:26:52;;;;;;;34.00;6.80;;;13.00;72.10;;;12.38;56.44;101770.75;5007525;28;20054;-83
2023/05/26 02:29:19;;;;;;;32.45;6.28;;;13.00;72.10;;;12.37;56.51;101774.44;5005983;28;20058;-83
2023/05/26 02:31:46;;;;;;;28.05;5.78;;;13.00;72.20;;;12.30;56.59;101777.06;4999765;28;20506;-84
2023/05/26 02:34:15;;;;;;;24.45;5.80;;;12.90;72.50;;;12.27;56.88;101773.94;5008183;28;20570;-82
2023/05/26 02:36:42;;;;;;;27.33;6.03;;;12.80;72.70;;;12.26;56.85;101772.28;4992061;28;20080;-82
2023/05/26 02:39:09;;;;;;;26.58;5.97;;;12.80;72.70;;;12.24;56.85;101783.16;5074382;23;20109;-77
2023/05/26 02:41:36;;;;;;;27.58;5.18;;;12.80;72.70;;;12.21;56.86;101769.34;5076444;28;20044;-77
2023/05/26 02:44:04;;;;;;;29.65;6.30;;;12.80;72.90;;;12.20;57.13;101778.38;5055922;28;20133;-77
2023/05/26 02:46:31;;;;;;;32.42;6.25;;;12.70;73.00;;;12.15;57.12;101778.13;5052913;28;20086;-77
2023/05/26 02:49:00;;;;;;;30.77;6.25;;;12.80;73.10;;;12.15;57.25;101775.44;5036672;28;20044;-77
2023/05/26 02:51:28;;;;;;;29.63;6.25;;;12.70;73.20;;;12.13;57.44;101775.66;5032976;28;20041;-77
2023/05/26 02:53:56;;;;;;;26.98;6.13;;;12.70;73.30;;;12.11;57.39;101786.53;5051874;28;20340;-77
2023/05/26 02:56:23;;;;;;;31.48;7.20;;;12.70;73.30;;;12.13;57.42;101781.00;5033601;28;20136;-77
2023/05/26 02:58:50;;;;;;;28.35;5.95;;;12.70;73.30;;;12.13;57.29;101772.16;5057351;28;20477;-77
2023/05/26 03:01:17;;;;;;;25.00;6.13;;;12.70;73.20;;;12.14;57.43;101779.97;5053414;28;20072;-77
2023/05/26 03:03:44;;;;;;;31.52;6.30;;;12.70;73.30;;;12.14;57.34;101779.16;5044266;28;20117;-77
2023/05/26 03:06:12;;;;;;;37.10;6.75;;;12.70;73.50;;;12.11;57.34;101780.38;5028278;28;20842;-77
2023/05/26 03:08:40;;;;;;;26.92;5.13;;;12.70;73.20;;;12.14;57.41;101787.16;5030642;28;20504;-77
2023/05/26 03:11:07;;;;;;;32.63;6.28;;;12.70;73.40;;;12.11;57.48;101781.19;5036969;28;20060;-77
2023/05/26 03:13:35;;;;;;;26.75;5.65;;;12.70;73.40;;;12.14;57.64;101777.28;5043912;28;20451;-77
2023/05/26 03:16:02;;;;;;;24.42;6.00;;;12.70;73.40;;;12.13;57.72;101782.84;5041178;28;20036;-77
2023/05/26 03:18:30;;;;;;;40.40;6.45;;;12.70;73.40;;;12.10;57.69;101776.88;5035801;28;20041;-77
2023/05/26 03:20:58;;;;;;;32.88;6.15;;;12.70;73.60;;;12.08;57.79;101786.06;5033265;28;20045;-77
2023/05/26 03:23:26;;;;;;;36.70;6.90;;;12.70;73.80;;;12.05;57.82;101778.41;5028481;28;20481;-77
2023/05/26 03:25:54;;;;;;;34.15;6.10;;;12.70;74.00;;;12.03;57.95;101780.47;5032434;28;20126;-77
2023/05/26 03:28:22;;;;;;;34.72;6.40;;;12.60;73.80;;;12.04;57.94;101782.94;5043518;28;20076;-77
2023/05/26 03:30:51;;;;;;;32.92;6.78;;;12.60;73.90;;;12.03;58.03;101777.78;5039619;28;20072;-77
2023/05/26 03:33:18;;;;;;;39.03;6.57;;;12.60;74.00;;;12.04;58.04;101782.13;5033283;28;20060;-76
2023/05/26 03:35:46;;;;;;;25.52;6.13;;;12.60;74.00;;;12.06;58.13;101780.09;5031829;28;20048;-77
2023/05/26 03:38:13;;;;;;;29.98;6.15;;;12.70;74.10;;;12.04;58.09;101785.63;5033042;28;20450;-77
2023/05/26 03:40:43;;;;;;;29.20;5.63;;;12.60;74.10;;;12.04;58.15;101782.13;5031328;28;20517;-77
2023/05/26 03:43:11;;;;;;;34.92;7.65;;;12.60;74.20;;;12.03;58.44;101797.34;5032532;28;20053;-77
2023/05/26 03:45:45;;;;;;;32.17;7.10;;;12.60;74.30;;;11.98;58.18;101791.72;5033283;28;20124;-77
2023/05/26 03:48:14;;;;;;;31.88;6.47;;;12.60;74.30;;;11.96;58.52;101792.94;5030926;28;20095;-77
2023/05/26 03:50:46;;;;;;;35.43;6.97;;;12.60;74.50;;;11.91;58.47;101795.31;5031902;28;20045;-77
2023/05/26 03:53:13;;;;;;;31.17;6.65;;;12.50;74.60;;;11.91;58.55;101798.84;5032321;28;20147;-77
2023/05/26 03:55:42;;;;;;;31.48;6.97;;;12.50;74.80;;;11.90;58.85;101801.69;5032776;28;20493;-77
2023/05/26 03:58:11;;;;;;;36.70;7.13;;;12.50;75.00;;;11.85;58.80;101802.25;5030012;28;20056;-77
2023/05/26 04:00:38;;;;;;;46.20;7.20;;;12.50;75.10;;;11.84;58.87;101797.94;5023956;28;20048;-77
2023/05/26 04:03:06;;;;;;;29.02;6.40;;;12.40;75.20;;;11.84;58.99;101792.59;5032354;28;20053;-77
2023/05/26 04:05:33;;;;;;;30.75;7.07;;;12.50;75.50;;;11.86;59.29;101801.25;5031040;28;20102;-77
2023/05/26 04:08:00;;;;;;;37.78;6.95;;;12.50;75.80;;;11.87;59.07;101802.09;5049422;28;20048;-77
2023/05/26 04:10:28;;;;;;;29.70;6.00;;;12.50;75.60;;;11.84;59.17;101798.75;5032492;28;20049;-76
2023/05/26 04:12:55;;;;;;;32.83;7.97;;;12.50;75.60;;;11.83;59.09;101801.63;5032093;28;20045;-78
2023/05/26 04:15:24;;;;;;;44.83;6.70;;;12.40;75.40;;;11.82;59.33;101792.78;5041139;28;20103;-77
2023/05/26 04:17:51;;;;;;;36.80;6.35;;;12.40;75.70;;;11.81;59.29;101806.31;5032319;28;20102;-78
2023/05/26 04:20:19;;;;;;;33.05;7.32;;;12.40;75.70;;;11.81;59.25;101811.66;5049053;28;20124;-79
2023/05/26 04:22:46;;;;;;;30.95;7.25;;;12.40;75.80;;;11.77;59.26;101805.84;5031280;28;20056;-79
2023/05/26 04:25:14;;;;;;;42.50;8.18;;;12.40;75.80;;;11.81;59.43;101811.66;5032280;28;20826;-80
2023/05/26 04:27:49;;;;;;;32.22;6.32;;;12.40;76.00;;;11.77;59.28;101813.84;5031424;28;20144;-79
2023/05/26 04:30:32;;;;;;;39.20;7.53;;;12.40;75.80;;;11.73;59.83;101814.41;5026945;28;20128;-79
2023/05/26 04:33:20;;;;;;;33.75;7.50;;;12.40;76.10;;;11.70;59.78;101812.09;5052664;28;20183;-80
2023/05/26 04:36:09;;;;;;;39.63;7.00;;;12.40;76.10;;;11.71;59.79;101819.09;5049266;28;20532;-79
2023/05/26 04:38:37;;;;;;;36.30;8.07;;;12.30;76.20;;;11.72;59.84;101818.94;5048569;28;20044;-79
2023/05/26 04:41:06;;;;;;;37.20;7.40;;;12.30;76.30;;;11.69;59.91;101819.28;5037372;28;20064;-81
2023/05/26 04:43:35;;;;;;;33.58;7.03;;;12.30;76.40;;;11.69;60.04;101816.63;5034831;28;20036;-81
2023/05/26 04:46:04;;;;;;;35.92;6.97;;;12.30;76.50;;;11.75;60.10;101823.88;5028145;28;20408;-80
2023/05/26 04:48:32;;;;;;;36.70;7.88;;;12.40;76.50;;;11.75;59.99;101820.38;5039045;28;20049;-80
2023/05/26 04:51:00;;;;;;;32.15;7.15;;;12.30;76.50;;;11.71;60.17;101819.94;5050812;28;20041;-81
2023/05/26 04:53:27;;;;;;;34.95;7.70;;;12.40;76.60;;;11.73;60.13;101817.91;5029510;28;20052;-80
2023/05/26 04:55:55;;;;;;;28.55;6.55;;;12.40;76.60;;;11.72;60.04;101821.59;5039048;28;20110;-81
2023/05/26 04:58:22;;;;;;;41.80;7.70;;;12.30;76.50;;;11.78;60.01;101830.72;5034745;28;20049;-81
2023/05/26 05:00:50;;;;;;;31.50;7.00;;;12.40;76.50;;;11.81;59.99;101825.84;5028814;28;20076;-81
2023/05/26 05:03:45;;;;;;;41.42;7.55;;;12.40;76.40;;;11.77;59.99;101821.88;5032189;28;20053;-81
2023/05/26 05:06:20;;;;;;;36.80;6.85;;;12.40;76.40;;;11.80;60.06;101823.34;5028566;28;20524;-79
2023/05/26 05:08:47;;;;;;;35.42;7.65;;;12.50;76.60;;;11.83;59.94;101828.34;5031338;28;20053;-81
2023/05/26 05:11:15;;;;;;;43.70;8.13;;;12.40;76.30;;;11.79;59.75;101827.84;5029963;28;20567;-80
2023/05/26 05:13:42;;;;;;;34.88;7.85;;;12.40;76.20;;;11.72;59.77;101824.28;5028205;28;20148;-81
2023/05/26 05:16:09;;;;;;;40.58;7.32;;;12.40;76.30;;;11.74;59.91;101832.94;5028624;28;20041;-81
2023/05/26 05:18:37;;;;;;;41.97;7.47;;;12.40;76.40;;;11.72;59.86;101826.94;5026678;28;20053;-81
2023/05/26 05:21:06;;;;;;;40.42;8.27;;;12.40;76.40;;;11.72;59.94;101829.63;5045031;28;20056;-81
2023/05/26 05:23:34;;;;;;;42.08;8.13;;;12.30;76.50;;;11.72;59.99;101826.13;5034268;28;20045;-83
2023/05/26 05:26:03;;;;;;;45.28;6.88;;;12.40;76.60;;;11.76;60.02;101822.91;5026187;28;20040;-81
2023/05/26 05:28:32;;;;;;;32.00;7.47;;;12.40;76.60;;;11.73;59.94;101828.59;5027732;28;20138;-86
2023/05/26 05:31:11;;;;;;;40.30;7.03;;;12.40;76.40;;;11.75;59.98;101839.09;5025053;28;20067;-79
2023/05/26 05:33:38;;;;;;;39.78;7.63;;;12.40;76.50;;;11.74;60.09;101837.44;5026103;28;20053;-82
2023/05/26 05:36:09;;;;;;;44.30;7.53;;;12.40;76.50;;;11.75;59.89;101842.59;5038947;28;20052;-82
2023/05/26 05:38:36;;;;;;;37.42;7.82;;;12.40;76.50;;;11.70;59.86;101847.66;5026792;28;20045;-81
2023/05/26 05:41:03;;;;;;;36.38;7.05;;;12.40;76.40;;;11.63;60.15;101843.25;5024134;28;20045;-82
2023/05/26 05:43:30;;;;;;;33.67;6.55;;;12.30;76.60;;;11.65;60.35;101844.72;5029440;28;20119;-82
2023/05/26 05:45:59;;;;;;;32.00;7.53;;;12.30;76.70;;;11.71;60.06;101854.69;5028494;28;20946;-82
2023/05/26 05:48:48;;;;;;;43.95;8.60;;;12.30;76.70;;;11.69;59.99;101853.22;5048189;28;20044;-81
2023/05/26 05:51:23;;;;;;;39.03;7.07;;;12.30;76.60;;;11.66;60.11;101857.06;5026739;28;20045;-82
2023/05/26 05:53:51;;;;;;;39.60;7.40;;;12.30;76.80;;;11.70;60.29;101855.69;5037516;28;20048;-81
2023/05/26 05:56:18;;;;;;;36.00;7.90;;;12.30;76.80;;;11.73;60.04;101857.19;5029391;28;20056;-81
2023/05/26 05:58:46;;;;;;;32.95;7.93;;;12.40;76.50;;;11.76;60.16;101865.66;5043452;28;20056;-82
2023/05/26 06:01:14;;;;;;;35.95;8.48;;;12.40;76.60;;;11.79;59.96;101870.63;5030362;28;20106;-81
2023/05/26 06:03:42;;;;;;;37.13;9.65;;;12.40;76.40;;;11.81;60.10;101868.59;5027819;28;20676;-82
2023/05/26 06:06:10;;;;;;;37.67;8.23;;;12.40;76.50;;;11.87;59.98;101869.75;5028488;28;20132;-82
2023/05/26 06:08:39;;;;;;;43.70;8.32;;;12.50;76.60;;;11.88;59.79;101876.75;5028297;28;20068;-82
2023/05/26 06:11:07;;;;;;;31.80;7.18;;;12.50;76.30;;;11.89;59.66;101869.53;5044135;28;20063;-81
2023/05/26 06:13:38;;;;;;;33.17;8.00;;;12.50;76.00;;;11.93;59.95;101874.34;5028506;28;20060;-81
2023/05/26 06:16:07;;;;;;;35.83;7.28;;;12.60;76.40;;;11.95;59.56;101874.16;5026963;28;20441;-82
2023/05/26 06:18:34;;;;;;;42.53;7.78;;;12.60;76.00;;;11.97;59.70;101878.31;5034881;28;20652;-82
2023/05/26 06:21:02;;;;;;;34.10;7.68;;;12.60;76.00;;;11.97;59.70;101872.97;5027070;28;20052;-81
2023/05/26 06:23:30;;;;;;;39.88;8.40;;;12.60;76.00;;;12.02;59.65;101872.41;5031128;28;20049;-82
2023/05/26 06:25:58;;;;;;;35.03;9.02;;;12.70;76.20;;;12.03;59.56;101874.06;5024567;28;20409;-82
2023/05/26 06:28:27;;;;;;;38.80;8.82;;;12.70;76.00;;;12.03;59.20;101882.06;5023213;28;20106;-82
2023/05/26 06:30:54;;;;;;;45.63;8.88;;;12.70;75.60;;;12.02;59.12;101877.75;5024028;28;20040;-82
2023/05/26 06:33:42;;;;;;;47.47;9.27;;;12.70;75.50;;;12.06;59.30;101890.56;5053034;28;20057;-82
2023/05/26 06:36:11;;;;;;;38.03;8.48;;;12.70;75.60;;;12.07;58.87;101883.38;5042773;28;20041;-82
2023/05/26 06:38:38;;;;;;;35.75;8.77;;;12.70;75.00;;;12.11;58.65;101887.34;5054345;28;20041;-82
2023/05/26 06:41:09;;;;;;;37.42;9.35;;;12.70;75.00;;;12.13;58.68;101893.31;5030034;28;20052;-82
2023/05/26 06:43:38;;;;;;;34.42;8.07;;;12.80;74.90;;;12.14;58.75;101886.13;5028008;28;20065;-82
2023/05/26 06:46:06;;;;;;;42.50;9.45;;;12.80;74.90;;;12.15;58.81;101895.78;5025811;28;20056;-82
2023/05/26 06:48:36;;;;;;;38.10;9.73;;;12.80;75.10;;;12.20;58.51;101896.91;5049169;28;20476;-82
2023/05/26 06:51:11;;;;;;;36.90;8.68;;;12.80;74.80;;;12.19;58.50;101892.56;5031134;28;20037;-81
2023/05/26 06:53:41;;;;;;;32.92;8.52;;;12.80;74.70;;;12.21;58.26;101892.41;5036600;28;20044;-82
2023/05/26 06:56:09;;;;;;;34.30;7.85;;;12.90;74.70;;;12.20;58.30;101896.91;5035610;28;20863;-82
2023/05/26 06:58:37;;;;;;;42.10;9.18;;;12.90;74.70;;;12.23;58.25;101893.84;5035340;28;20147;-83
2023/05/26 07:01:05;;;;;;;35.85;8.68;;;12.90;74.40;;;12.29;58.39;101902.97;5030547;28;20044;-81
2023/05/26 07:03:35;;;;;;;36.65;7.75;;;13.00;74.50;;;12.30;58.08;101900.13;5033035;28;20118;-82
2023/05/26 07:06:03;;;;;;;33.67;8.35;;;13.00;74.30;;;12.36;58.22;101902.03;5024991;28;20778;-82
2023/05/26 07:08:32;;;;;;;42.97;8.65;;;13.00;74.30;;;12.38;57.70;101918.72;5029296;28;20394;-82
2023/05/26 07:11:19;;;;;;;32.72;8.63;;;13.00;73.90;;;12.44;57.97;101913.63;5031865;28;20136;-82
2023/05/26 07:13:52;;;;;;;31.77;8.13;;;13.00;74.20;;;12.57;58.17;101903.09;5030102;28;20584;-82
2023/05/26 07:16:22;;;;;;;27.55;8.48;;;13.20;74.10;;;12.74;57.88;101904.53;5030263;28;20052;-82
2023/05/26 07:18:49;;;;;;;38.60;8.65;;;13.30;74.10;;;12.93;57.42;101910.25;5046114;28;20552;-81
2023/05/26 07:21:18;;;;;;;38.30;9.98;;;13.50;73.90;;;13.03;56.87;101903.59;5030429;28;20464;-82
2023/05/26 07:23:48;;;;;;;41.08;9.25;;;13.60;73.10;;;13.08;57.07;101911.06;5037763;28;20052;-82
2023/05/26 07:26:15;;;;;;;42.30;10.02;;;13.70;73.20;;;13.19;56.82;101907.00;5030438;28;20446;-82
2023/05/26 07:28:44;;;;;;;26.92;7.90;;;13.80;72.80;;;13.25;56.29;101912.44;5035387;28;20725;-82
2023/05/26 07:31:11;;;;;;;35.03;8.65;;;13.90;72.50;;;13.29;55.66;101919.09;5034764;28;20524;-82
2023/05/26 07:33:41;;;;;;;34.15;8.60;;;13.90;71.60;;;13.37;55.45;101913.59;5039475;28;20911;-82
2023/05/26 07:36:09;;;;;;;33.30;8.48;;;14.00;71.30;;;13.51;55.26;101909.16;5051690;28;20037;-81
2023/05/26 07:38:36;;;;;;;36.05;8.65;;;14.10;71.10;;;13.66;55.61;101909.03;5029694;28;20601;-82
2023/05/26 07:41:05;;;;;;;33.22;9.07;;;14.20;71.30;;;13.79;55.32;101905.63;5062383;28;20144;-82
2023/05/26 07:43:32;;;;;;;33.08;8.43;;;14.40;71.30;;;13.94;54.85;101903.66;5053861;28;20037;-83
2023/05/26 07:46:01;;;;;;;29.75;8.05;;;14.60;70.50;;;14.06;55.40;101906.63;5050852;28;20045;-82
2023/05/26 07:48:28;;;;;;;30.73;7.47;;;14.70;71.30;;;14.21;54.40;101903.78;5037052;28;20053;-82
2023/05/26 07:50:55;;;;;;;29.40;7.63;;;14.80;69.90;;;14.28;53.74;101900.09;5054982;28;20110;-82
2023/05/26 07:53:22;;;;;;;30.95;7.82;;;14.90;69.30;;;14.35;54.05;101889.41;5049748;28;20124;-82
2023/05/26 07:55:50;;;;;;;36.17;8.68;;;15.00;69.50;;;14.37;53.37;101898.91;5042213;28;20087;-82
2023/05/26 07:58:18;;;;;;;37.40;8.55;;;15.00;68.70;;;14.36;52.82;101897.25;5035190;28;20049;-82
2023/05/26 08:00:45;;;;;;;31.77;7.78;;;15.00;67.70;;;14.38;52.87;101899.72;5055044;28;20045;-82
2023/05/26 08:03:13;;;;;;;35.20;8.00;;;15.10;67.90;;;14.41;52.42;101902.00;5048892;28;20512;-82
2023/05/26 08:05:42;;;;;;;35.17;9.23;;;15.10;67.40;;;14.37;52.43;101900.75;5046482;28;20068;-82
2023/05/26 08:08:09;;;;;;;37.35;7.72;;;15.00;67.20;;;14.44;53.00;101893.53;5049380;28;20628;-82
2023/05/26 08:10:36;;;;;;;29.40;7.78;;;15.10;68.10;;;14.56;53.86;101894.66;5048038;28;20065;-82
2023/05/26 08:13:04;;;;;;;34.17;8.50;;;15.20;68.90;;;14.70;53.15;101897.38;5045360;28;20071;-82
2023/05/26 08:15:31;;;;;;;28.58;7.63;;;15.40;68.20;;;14.73;52.72;101903.16;5051234;28;20041;-82
2023/05/26 08:17:58;;;;;;;35.33;8.63;;;15.40;67.90;;;14.70;52.06;101908.94;5049560;28;20116;-82
2023/05/26 08:20:27;;;;;;;34.17;8.20;;;15.40;66.70;;;14.75;51.70;101902.97;5049014;28;20061;-82
2023/05/26 08:22:57;;;;;;;31.42;7.80;;;15.40;66.40;;;14.78;52.02;101910.59;5051087;28;20121;-83
2023/05/26 08:25:24;;;;;;;32.45;6.80;;;15.50;66.80;;;14.90;52.35;101904.44;5051219;28;20080;-83
2023/05/26 08:27:51;;;;;;;29.40;7.25;;;15.50;67.00;;;15.02;52.43;101887.69;5051772;28;20124;-82
2023/05/26 08:30:19;;;;;;;35.83;7.35;;;15.60;67.50;;;15.14;53.01;101894.94;5054404;28;20118;-83
2023/05/26 08:32:46;;;;;;;36.58;7.72;;;15.70;68.10;;;15.20;50.92;101890.59;5047371;28;20048;-81
2023/05/26 08:35:13;;;;;;;31.30;7.90;;;15.80;65.40;;;15.26;50.94;101897.84;5053791;28;20072;-82
2023/05/26 08:40:20;;;;;;;27.58;6.95;;;16.00;64.80;;;15.37;50.50;101893.69;4964274;28;20605;-80
2023/05/26 08:42:51;;;;;;;34.38;7.82;;;16.00;64.80;;;15.41;50.04;101892.25;4968776;28;20066;-78
2023/05/26 08:45:20;;;;;;;30.38;7.05;;;16.10;64.20;;;15.49;50.77;101888.53;4964963;28;20050;-78
2023/05/26 08:47:48;;;;;;;33.00;7.57;;;16.10;65.00;;;15.56;50.41;101889.31;4968763;28;20154;-79
2023/05/26 08:50:17;;;;;;;40.53;7.55;;;16.20;64.50;;;15.56;50.33;101886.63;4969488;28;20046;-79
2023/05/26 08:52:46;;;;;;;34.70;7.40;;;16.20;64.20;;;15.60;50.96;101899.47;4966851;28;20046;-78
2023/05/26 08:55:14;;;;;;;38.35;7.93;;;16.30;65.40;;;15.67;49.96;101891.44;4968864;28;20047;-78
2023/05/26 08:57:43;;;;;;;35.50;7.50;;;16.30;63.80;;;15.65;49.55;101890.78;4969566;28;20035;-78
2023/05/26 09:00:12;;;;;;;29.10;7.13;;;16.30;63.40;;;15.63;49.25;101885.63;4962473;28;20046;-79
2023/05/26 09:02:40;;;;;;;29.33;7.05;;;16.30;63.00;;;15.66;50.05;101877.16;4968245;28;20050;-78
2023/05/26 09:05:08;;;;;;;33.33;8.68;;;16.40;64.00;;;15.75;50.54;101885.81;4969451;28;20051;-78
2023/05/26 09:07:36;;;;;;;27.65;7.10;;;16.40;64.40;;;15.80;50.51;101888.69;4966082;28;20368;-78
2023/05/26 09:10:19;;;;;;;30.75;7.90;;;16.50;64.60;;;15.88;51.64;101883.09;4963843;28;20058;-78
2023/05/26 09:12:48;;;;;;;30.23;7.55;;;16.50;65.90;;;15.88;49.05;101882.28;4965411;28;20074;-79
2023/05/26 09:15:20;;;;;;;29.60;7.50;;;16.60;62.60;;;15.86;49.42;101890.56;4965595;28;20224;-79
2023/05/26 09:17:48;;;;;;;31.33;7.03;;;16.60;63.30;;;15.83;48.33;101887.47;4966440;28;20105;-80
2023/05/26 09:20:16;;;;;;;31.98;7.45;;;16.50;61.80;;;15.80;48.91;101888.69;4971754;28;20070;-79
2023/05/26 09:22:45;;;;;;;30.85;7.22;;;16.50;62.60;;;15.77;49.10;101891.00;4966094;28;20070;-79
2023/05/26 09:25:16;;;;;;;29.70;6.90;;;16.50;62.70;;;15.73;48.88;101879.00;4951035;28;20042;-80
2023/05/26 09:27:49;;;;;;;28.33;6.82;;;16.50;62.30;;;15.74;49.53;101889.53;4964063;28;20065;-79
2023/05/26 09:30:16;;;;;;;27.48;7.05;;;16.50;63.10;;;15.76;49.77;101882.06;4972152;28;20114;-80
2023/05/26 09:32:47;;;;;;;31.33;7.47;;;16.50;63.70;;;15.76;49.02;101884.75;4965712;28;20133;-78
2023/05/26 09:35:14;;;;;;;33.10;7.63;;;16.50;62.60;;;15.81;49.34;101892.19;4967652;28;20672;-79
2023/05/26 09:37:44;;;;;;;36.00;7.57;;;16.50;62.90;;;15.81;49.29;101890.38;4968294;28;20612;-80
2023/05/26 09:40:14;;;;;;;29.17;6.63;;;16.50;62.90;;;15.78;49.09;101885.41;4969940;28;20045;-78
2023/05/26 09:42:53;;;;;;;26.20;6.57;;;16.50;62.80;;;15.78;49.69;101900.72;4965132;28;20080;-79
2023/05/26 09:45:21;;;;;;;30.33;7.22;;;16.50;63.20;;;15.80;49.08;101896.75;4966143;28;20146;-78
2023/05/26 09:47:53;;;;;;;26.33;6.78;;;16.50;62.60;;;15.82;49.16;101897.41;4968609;28;20050;-79
2023/05/26 09:50:21;;;;;;;30.55;7.53;;;16.50;62.80;;;15.85;49.33;101888.88;4948010;28;20058;-80
2023/05/26 09:52:49;;;;;;;37.55;7.50;;;16.60;63.00;;;15.87;49.44;101894.91;4963849;28;20054;-81
2023/05/26 09:55:17;;;;;;;30.30;7.55;;;16.60;63.00;;;15.88;50.18;101884.97;4961350;28;21137;-78
2023/05/26 09:57:46;;;;;;;29.60;6.75;;;16.60;64.00;;;15.95;50.04;101891.13;4967149;28;20073;-78
2023/05/26 10:00:18;;;;;;;32.50;6.97;;;16.60;63.70;;;15.98;49.26;101896.09;4966648;28;20042;-78
2023/05/26 10:02:48;;;;;;;30.27;6.75;;;16.70;63.00;;;16.02;50.03;101885.75;4966491;28;20055;-79
2023/05/26 10:05:17;;;;;;;27.48;6.90;;;16.70;63.70;;;16.07;49.91;101888.63;4967639;28;20082;-78
2023/05/26 10:07:45;;;;;;;33.17;7.53;;;16.80;63.60;;;16.08;50.86;101901.03;4968727;28;20122;-79
2023/05/26 10:10:14;;;;;;;29.05;7.15;;;16.80;64.60;;;16.11;49.24;101889.84;4969245;28;20419;-79
2023/05/26 10:12:43;;;;;;;31.85;7.00;;;16.80;62.60;;;16.16;50.65;101893.56;4968429;28;20105;-78
2023/05/26 10:15:11;;;;;;;32.65;7.25;;;16.80;64.30;;;16.18;48.89;101883.41;4967278;28;20050;-78
2023/05/26 10:17:40;;;;;;;34.22;7.70;;;16.90;62.40;;;16.20;48.52;101888.56;4968319;28;20051;-78